sensor_id;sensor_type;location;lat;lon;timestamp;temperature;humidity
7970;DHT22;4030;52.362;9.206;2023-05-29T00:00:35;18.70;58.00
7970;DHT22;4030;52.362;9.206;2023-05-29T00:03:00;18.70;58.00
7970;DHT22;4030;52.362;9.206;2023-05-29T00:05:27;18.60;57.40
7970;DHT22;4030;52.362;9.206;2023-05-29T00:07:52;18.60;57.40
7970;DHT22;4030;52.362;9.206;2023-05-29T00:10:18;18.50;57.30
7970;DHT22;4030;52.362;9.206;2023-05-29T00:12:44;18.50;57.90
7970;DHT22;4030;52.362;9.206;2023-05-29T00:15:10;18.50;57.30
7970;DHT22;4030;52.362;9.206;2023-05-29T00:17:36;18.40;57.30
7970;DHT22;4030;52.362;9.206;2023-05-29T00:20:02;18.40;57.80
7970;DHT22;4030;52.362;9.206;2023-05-29T00:22:32;18.30;57.20
7970;DHT22;4030;52.362;9.206;2023-05-29T00:24:58;18.30;57.30
7970;DHT22;4030;52.362;9.206;2023-05-29T00:27:23;18.30;57.30
7970;DHT22;4030;52.362;9.206;2023-05-29T00:29:49;18.30;57.20
7970;DHT22;4030;52.362;9.206;2023-05-29T00:32:15;18.30;57.30
7970;DHT22;4030;52.362;9.206;2023-05-29T00:34:41;18.20;57.10
7970;DHT22;4030;52.362;9.206;2023-05-29T00:37:06;18.20;57.70
7970;DHT22;4030;52.362;9.206;2023-05-29T00:41:58;18.10;57.20
7970;DHT22;4030;52.362;9.206;2023-05-29T00:44:24;18.10;57.20
7970;DHT22;4030;52.362;9.206;2023-05-29T00:46:52;18.10;57.20
7970;DHT22;4030;52.362;9.206;2023-05-29T00:49:20;18.10;57.20
7970;DHT22;4030;52.362;9.206;2023-05-29T00:51:48;18.00;57.10
7970;DHT22;4030;52.362;9.206;2023-05-29T00:54:20;17.90;57.00
7970;DHT22;4030;52.362;9.206;2023-05-29T00:56:47;17.90;57.10
7970;DHT22;4030;52.362;9.206;2023-05-29T00:59:13;17.90;57.10
7970;DHT22;4030;52.362;9.206;2023-05-29T01:01:40;17.90;57.10
7970;DHT22;4030;52.362;9.206;2023-05-29T01:04:06;17.80;57.60
7970;DHT22;4030;52.362;9.206;2023-05-29T01:06:32;14.70;55.00
7970;DHT22;4030;52.362;9.206;2023-05-29T01:08:58;17.70;57.00
7970;DHT22;4030;52.362;9.206;2023-05-29T01:11:36;17.70;57.60
7970;DHT22;4030;52.362;9.206;2023-05-29T01:15:11;17.70;57.00
7970;DHT22;4030;52.362;9.206;2023-05-29T01:20:31;17.60;57.00
7970;DHT22;4030;52.362;9.206;2023-05-29T01:29:04;17.50;57.00
7970;DHT22;4030;52.362;9.206;2023-05-29T01:31:33;17.40;57.00
7970;DHT22;4030;52.362;9.206;2023-05-29T01:36:27;17.40;57.00
7970;DHT22;4030;52.362;9.206;2023-05-29T01:38:54;17.30;56.90
7970;DHT22;4030;52.362;9.206;2023-05-29T01:41:22;17.30;56.90
7970;DHT22;4030;52.362;9.206;2023-05-29T01:43:48;17.30;57.00
7970;DHT22;4030;52.362;9.206;2023-05-29T01:46:16;17.30;57.00
7970;DHT22;4030;52.362;9.206;2023-05-29T01:48:42;17.20;57.00
7970;DHT22;4030;52.362;9.206;2023-05-29T01:51:09;17.20;57.00
7970;DHT22;4030;52.362;9.206;2023-05-29T01:53:40;17.20;57.10
7970;DHT22;4030;52.362;9.206;2023-05-29T01:56:07;17.10;57.00
7970;DHT22;4030;52.362;9.206;2023-05-29T01:58:34;17.10;57.00
7970;DHT22;4030;52.362;9.206;2023-05-29T02:01:01;17.10;57.10
7970;DHT22;4030;52.362;9.206;2023-05-29T02:03:29;17.10;57.70
7970;DHT22;4030;52.362;9.206;2023-05-29T02:05:56;17.00;57.50
7970;DHT22;4030;52.362;9.206;2023-05-29T02:08:22;17.00;57.50
7970;DHT22;4030;52.362;9.206;2023-05-29T02:10:48;17.00;57.60
7970;DHT22;4030;52.362;9.206;2023-05-29T02:13:14;17.00;57.60
7970;DHT22;4030;52.362;9.206;2023-05-29T02:15:40;16.90;57.60
7970;DHT22;4030;52.362;9.206;2023-05-29T02:18:08;16.90;57.60
7970;DHT22;4030;52.362;9.206;2023-05-29T02:20:37;16.90;57.70
7970;DHT22;4030;52.362;9.206;2023-05-29T02:23:03;16.80;57.50
7970;DHT22;4030;52.362;9.206;2023-05-29T02:25:28;16.80;57.60
7970;DHT22;4030;52.362;9.206;2023-05-29T02:27:54;16.80;57.60
7970;DHT22;4030;52.362;9.206;2023-05-29T02:30:20;16.70;57.60
7970;DHT22;4030;52.362;9.206;2023-05-29T02:32:46;16.70;57.10
7970;DHT22;4030;52.362;9.206;2023-05-29T02:35:12;16.60;57.00
7970;DHT22;4030;52.362;9.206;2023-05-29T02:37:40;16.70;57.70
7970;DHT22;4030;52.362;9.206;2023-05-29T02:40:07;16.50;57.00
7970;DHT22;4030;52.362;9.206;2023-05-29T02:42:35;16.60;57.10
7970;DHT22;4030;52.362;9.206;2023-05-29T02:45:01;16.50;57.10
7970;DHT22;4030;52.362;9.206;2023-05-29T02:47:27;16.60;57.20
7970;DHT22;4030;52.362;9.206;2023-05-29T02:49:53;16.50;57.20
7970;DHT22;4030;52.362;9.206;2023-05-29T02:52:18;16.50;57.20
7970;DHT22;4030;52.362;9.206;2023-05-29T02:54:44;16.40;57.20
7970;DHT22;4030;52.362;9.206;2023-05-29T02:57:10;16.40;57.30
7970;DHT22;4030;52.362;9.206;2023-05-29T03:02:02;16.30;57.30
7970;DHT22;4030;52.362;9.206;2023-05-29T03:04:28;16.30;57.80
7970;DHT22;4030;52.362;9.206;2023-05-29T03:06:53;16.30;57.40
7970;DHT22;4030;52.362;9.206;2023-05-29T03:09:19;16.30;57.40
7970;DHT22;4030;52.362;9.206;2023-05-29T03:11:45;16.20;57.30
7970;DHT22;4030;52.362;9.206;2023-05-29T03:16:39;16.10;57.30
7970;DHT22;4030;52.362;9.206;2023-05-29T03:19:06;16.20;57.40
7970;DHT22;4030;52.362;9.206;2023-05-29T03:23:59;16.10;57.40
7970;DHT22;4030;52.362;9.206;2023-05-29T03:26:25;16.20;57.60
7970;DHT22;4030;52.362;9.206;2023-05-29T03:28:51;16.20;57.60
7970;DHT22;4030;52.362;9.206;2023-05-29T03:31:17;16.10;57.50
7970;DHT22;4030;52.362;9.206;2023-05-29T03:36:10;16.10;57.60
7970;DHT22;4030;52.362;9.206;2023-05-29T03:38:36;16.00;57.50
7970;DHT22;4030;52.362;9.206;2023-05-29T03:41:02;16.00;57.50
7970;DHT22;4030;52.362;9.206;2023-05-29T03:43:27;16.00;57.60
7970;DHT22;4030;52.362;9.206;2023-05-29T03:48:19;16.00;57.60
7970;DHT22;4030;52.362;9.206;2023-05-29T03:50:46;16.00;57.70
7970;DHT22;4030;52.362;9.206;2023-05-29T03:53:12;16.00;57.80
7970;DHT22;4030;52.362;9.206;2023-05-29T03:55:38;16.00;57.80
7970;DHT22;4030;52.362;9.206;2023-05-29T03:58:03;16.00;57.80
7970;DHT22;4030;52.362;9.206;2023-05-29T04:00:29;16.00;57.80
7970;DHT22;4030;52.362;9.206;2023-05-29T04:05:22;16.00;57.90
7970;DHT22;4030;52.362;9.206;2023-05-29T04:10:14;16.00;57.90
7970;DHT22;4030;52.362;9.206;2023-05-29T04:12:39;16.10;58.10
7970;DHT22;4030;52.362;9.206;2023-05-29T04:15:06;16.00;58.00
7970;DHT22;4030;52.362;9.206;2023-05-29T04:17:32;16.00;58.00
7970;DHT22;4030;52.362;9.206;2023-05-29T04:22:24;16.00;58.10
7970;DHT22;4030;52.362;9.206;2023-05-29T04:27:16;16.00;58.10
7970;DHT22;4030;52.362;9.206;2023-05-29T04:29:42;16.00;58.10
7970;DHT22;4030;52.362;9.206;2023-05-29T04:32:09;16.00;58.10
7970;DHT22;4030;52.362;9.206;2023-05-29T04:37:04;15.90;58.10
7970;DHT22;4030;52.362;9.206;2023-05-29T04:39:31;16.00;58.10
7970;DHT22;4030;52.362;9.206;2023-05-29T04:41:57;16.10;58.30
7970;DHT22;4030;52.362;9.206;2023-05-29T04:44:24;16.10;58.30
7970;DHT22;4030;52.362;9.206;2023-05-29T04:46:52;16.10;58.40
7970;DHT22;4030;52.362;9.206;2023-05-29T04:49:18;16.10;58.30
7970;DHT22;4030;52.362;9.206;2023-05-29T04:51:44;16.10;58.40
7970;DHT22;4030;52.362;9.206;2023-05-29T04:54:10;16.10;58.40
7970;DHT22;4030;52.362;9.206;2023-05-29T04:56:36;16.20;58.40
7970;DHT22;4030;52.362;9.206;2023-05-29T05:01:29;16.20;58.50
7970;DHT22;4030;52.362;9.206;2023-05-29T05:03:55;16.20;58.50
7970;DHT22;4030;52.362;9.206;2023-05-29T05:06:22;16.20;58.50
7970;DHT22;4030;52.362;9.206;2023-05-29T05:08:47;16.30;58.70
7970;DHT22;4030;52.362;9.206;2023-05-29T05:11:14;16.30;58.70
7970;DHT22;4030;52.362;9.206;2023-05-29T05:16:06;16.30;58.90
7970;DHT22;4030;52.362;9.206;2023-05-29T05:18:32;16.30;58.90
7970;DHT22;4030;52.362;9.206;2023-05-29T05:20:57;16.30;58.90
7970;DHT22;4030;52.362;9.206;2023-05-29T05:23:23;16.30;59.00
7970;DHT22;4030;52.362;9.206;2023-05-29T05:25:49;16.40;59.00
7970;DHT22;4030;52.362;9.206;2023-05-29T05:28:15;16.30;59.00
7970;DHT22;4030;52.362;9.206;2023-05-29T05:30:40;16.40;59.10
7970;DHT22;4030;52.362;9.206;2023-05-29T05:33:06;16.40;59.00
7970;DHT22;4030;52.362;9.206;2023-05-29T05:35:33;16.50;59.10
7970;DHT22;4030;52.362;9.206;2023-05-29T05:37:59;16.50;59.10
7970;DHT22;4030;52.362;9.206;2023-05-29T05:40:25;16.50;59.10
7970;DHT22;4030;52.362;9.206;2023-05-29T05:42:51;16.60;59.20
7970;DHT22;4030;52.362;9.206;2023-05-29T05:45:17;16.50;59.10
7970;DHT22;4030;52.362;9.206;2023-05-29T05:47:42;16.50;59.00
7970;DHT22;4030;52.362;9.206;2023-05-29T05:50:08;16.60;59.10
7970;DHT22;4030;52.362;9.206;2023-05-29T05:52:34;16.60;59.00
7970;DHT22;4030;52.362;9.206;2023-05-29T05:55:00;16.60;59.00
7970;DHT22;4030;52.362;9.206;2023-05-29T05:57:26;16.80;59.10
7970;DHT22;4030;52.362;9.206;2023-05-29T05:59:52;16.70;58.90
7970;DHT22;4030;52.362;9.206;2023-05-29T06:02:18;16.90;59.00
7970;DHT22;4030;52.362;9.206;2023-05-29T06:04:44;16.90;58.80
7970;DHT22;4030;52.362;9.206;2023-05-29T06:07:09;16.90;58.60
7970;DHT22;4030;52.362;9.206;2023-05-29T06:09:36;17.00;58.70
7970;DHT22;4030;52.362;9.206;2023-05-29T06:12:02;17.20;58.70
7970;DHT22;4030;52.362;9.206;2023-05-29T06:14:28;17.10;58.50
7970;DHT22;4030;52.362;9.206;2023-05-29T06:16:53;17.20;58.40
7970;DHT22;4030;52.362;9.206;2023-05-29T06:19:20;17.30;58.50
7970;DHT22;4030;52.362;9.206;2023-05-29T06:21:46;17.30;58.40
7970;DHT22;4030;52.362;9.206;2023-05-29T06:24:12;17.30;58.30
7970;DHT22;4030;52.362;9.206;2023-05-29T06:26:39;17.30;58.20
7970;DHT22;4030;52.362;9.206;2023-05-29T06:29:05;17.40;58.20
7970;DHT22;4030;52.362;9.206;2023-05-29T06:33:58;17.60;58.10
7970;DHT22;4030;52.362;9.206;2023-05-29T06:36:24;17.60;58.00
7970;DHT22;4030;52.362;9.206;2023-05-29T06:38:50;17.70;58.00
7970;DHT22;4030;52.362;9.206;2023-05-29T06:41:16;17.70;57.80
7970;DHT22;4030;52.362;9.206;2023-05-29T06:43:42;17.90;57.90
7970;DHT22;4030;52.362;9.206;2023-05-29T06:46:08;17.90;57.80
7970;DHT22;4030;52.362;9.206;2023-05-29T06:48:34;18.00;57.80
7970;DHT22;4030;52.362;9.206;2023-05-29T06:51:01;18.00;57.80
7970;DHT22;4030;52.362;9.206;2023-05-29T06:53:35;18.10;57.80
7970;DHT22;4030;52.362;9.206;2023-05-29T06:56:01;18.20;57.80
7970;DHT22;4030;52.362;9.206;2023-05-29T06:58:27;18.20;57.70
7970;DHT22;4030;52.362;9.206;2023-05-29T07:00:52;18.30;57.70
7970;DHT22;4030;52.362;9.206;2023-05-29T07:05:45;18.50;57.70
7970;DHT22;4030;52.362;9.206;2023-05-29T07:13:02;18.70;57.40
7970;DHT22;4030;52.362;9.206;2023-05-29T07:15:28;18.80;57.50
7970;DHT22;4030;52.362;9.206;2023-05-29T07:17:54;18.90;57.40
7970;DHT22;4030;52.362;9.206;2023-05-29T07:20:19;19.00;57.50
7970;DHT22;4030;52.362;9.206;2023-05-29T07:22:45;19.10;57.40
7970;DHT22;4030;52.362;9.206;2023-05-29T07:25:11;19.20;57.30
7970;DHT22;4030;52.362;9.206;2023-05-29T07:27:37;19.30;57.30
7970;DHT22;4030;52.362;9.206;2023-05-29T07:30:03;19.30;57.30
7970;DHT22;4030;52.362;9.206;2023-05-29T07:32:31;19.30;57.10
7970;DHT22;4030;52.362;9.206;2023-05-29T07:34:56;19.40;57.10
7970;DHT22;4030;52.362;9.206;2023-05-29T07:37:22;19.60;57.10
7970;DHT22;4030;52.362;9.206;2023-05-29T07:39:48;19.60;56.80
7970;DHT22;4030;52.362;9.206;2023-05-29T07:42:13;19.60;56.40
7970;DHT22;4030;52.362;9.206;2023-05-29T07:47:07;19.90;56.30
7970;DHT22;4030;52.362;9.206;2023-05-29T07:49:33;20.00;56.20
7970;DHT22;4030;52.362;9.206;2023-05-29T07:51:58;20.10;56.00
7970;DHT22;4030;52.362;9.206;2023-05-29T07:54:25;20.10;55.80
7970;DHT22;4030;52.362;9.206;2023-05-29T07:56:51;20.30;55.70
7970;DHT22;4030;52.362;9.206;2023-05-29T07:59:17;20.40;55.60
7970;DHT22;4030;52.362;9.206;2023-05-29T08:01:42;20.50;55.50
7970;DHT22;4030;52.362;9.206;2023-05-29T08:04:09;20.60;55.40
7970;DHT22;4030;52.362;9.206;2023-05-29T08:06:35;20.60;55.30
7970;DHT22;4030;52.362;9.206;2023-05-29T08:11:28;20.90;55.10
7970;DHT22;4030;52.362;9.206;2023-05-29T08:13:54;21.00;55.10
7970;DHT22;4030;52.362;9.206;2023-05-29T08:16:20;21.00;55.60
7970;DHT22;4030;52.362;9.206;2023-05-29T08:18:47;21.20;55.20
7970;DHT22;4030;52.362;9.206;2023-05-29T08:21:13;21.30;55.20
7970;DHT22;4030;52.362;9.206;2023-05-29T08:23:39;21.30;54.90
7970;DHT22;4030;52.362;9.206;2023-05-29T08:26:05;21.50;54.90
7970;DHT22;4030;52.362;9.206;2023-05-29T08:28:31;21.50;54.60
7970;DHT22;4030;52.362;9.206;2023-05-29T08:30:56;21.60;54.40
7970;DHT22;4030;52.362;9.206;2023-05-29T08:33:22;21.70;54.30
7970;DHT22;4030;52.362;9.206;2023-05-29T08:35:48;21.80;54.10
7970;DHT22;4030;52.362;9.206;2023-05-29T08:38:13;21.80;54.70
7970;DHT22;4030;52.362;9.206;2023-05-29T08:40:40;22.00;54.60
7970;DHT22;4030;52.362;9.206;2023-05-29T08:43:17;22.10;54.50
7970;DHT22;4030;52.362;9.206;2023-05-29T08:45:48;22.10;54.30
7970;DHT22;4030;52.362;9.206;2023-05-29T08:48:23;22.20;54.20
7970;DHT22;4030;52.362;9.206;2023-05-29T08:50:53;22.30;54.00
7970;DHT22;4030;52.362;9.206;2023-05-29T08:53:24;22.50;54.00
7970;DHT22;4030;52.362;9.206;2023-05-29T08:55:51;22.50;53.80
7970;DHT22;4030;52.362;9.206;2023-05-29T08:58:19;22.60;53.60
7970;DHT22;4030;52.362;9.206;2023-05-29T09:00:47;22.70;53.50
7970;DHT22;4030;52.362;9.206;2023-05-29T09:03:13;22.80;53.50
7970;DHT22;4030;52.362;9.206;2023-05-29T09:05:40;22.80;53.50
7970;DHT22;4030;52.362;9.206;2023-05-29T09:08:10;22.90;53.50
7970;DHT22;4030;52.362;9.206;2023-05-29T09:10:41;23.00;53.50
7970;DHT22;4030;52.362;9.206;2023-05-29T09:13:09;23.10;53.40
7970;DHT22;4030;52.362;9.206;2023-05-29T09:15:35;23.30;53.50
7970;DHT22;4030;52.362;9.206;2023-05-29T09:18:04;23.40;53.30
7970;DHT22;4030;52.362;9.206;2023-05-29T09:20:30;23.50;53.20
7970;DHT22;4030;52.362;9.206;2023-05-29T09:23:03;23.80;52.50
7970;DHT22;4030;52.362;9.206;2023-05-29T09:25:32;23.80;53.00
7970;DHT22;4030;52.362;9.206;2023-05-29T09:28:00;23.90;52.90
7970;DHT22;4030;52.362;9.206;2023-05-29T09:30:43;24.00;52.80
7970;DHT22;4030;52.362;9.206;2023-05-29T09:33:11;24.10;52.70
7970;DHT22;4030;52.362;9.206;2023-05-29T09:35:38;24.20;52.60
7970;DHT22;4030;52.362;9.206;2023-05-29T09:38:06;24.30;52.40
7970;DHT22;4030;52.362;9.206;2023-05-29T09:40:35;24.40;52.10
7970;DHT22;4030;52.362;9.206;2023-05-29T09:43:15;24.60;52.00
7970;DHT22;4030;52.362;9.206;2023-05-29T09:45:47;24.70;51.70
7970;DHT22;4030;52.362;9.206;2023-05-29T09:48:18;24.80;51.50
7970;DHT22;4030;52.362;9.206;2023-05-29T09:50:47;25.00;51.30
7970;DHT22;4030;52.362;9.206;2023-05-29T09:53:26;25.10;51.10
7970;DHT22;4030;52.362;9.206;2023-05-29T09:55:55;25.20;50.70
7970;DHT22;4030;52.362;9.206;2023-05-29T09:58:22;25.40;50.50
7970;DHT22;4030;52.362;9.206;2023-05-29T10:00:49;25.50;50.20
7970;DHT22;4030;52.362;9.206;2023-05-29T10:03:16;25.70;50.20
7970;DHT22;4030;52.362;9.206;2023-05-29T10:05:46;25.80;49.90
7970;DHT22;4030;52.362;9.206;2023-05-29T10:08:15;25.90;49.80
7970;DHT22;4030;52.362;9.206;2023-05-29T10:10:44;25.90;49.50
7970;DHT22;4030;52.362;9.206;2023-05-29T10:13:15;26.00;49.80
7970;DHT22;4030;52.362;9.206;2023-05-29T10:15:45;26.00;50.00
7970;DHT22;4030;52.362;9.206;2023-05-29T10:18:44;26.00;50.20
7970;DHT22;4030;52.362;9.206;2023-05-29T10:21:16;26.00;50.40
7970;DHT22;4030;52.362;9.206;2023-05-29T10:23:46;26.00;50.40
7970;DHT22;4030;52.362;9.206;2023-05-29T10:26:25;26.10;50.50
7970;DHT22;4030;52.362;9.206;2023-05-29T10:32:12;26.20;50.60
7970;DHT22;4030;52.362;9.206;2023-05-29T10:38:11;26.40;50.50
7970;DHT22;4030;52.362;9.206;2023-05-29T10:40:38;26.50;50.50
7970;DHT22;4030;52.362;9.206;2023-05-29T10:43:04;26.60;50.50
7970;DHT22;4030;52.362;9.206;2023-05-29T10:47:56;26.70;50.20
7970;DHT22;4030;52.362;9.206;2023-05-29T10:50:41;26.80;50.20
7970;DHT22;4030;52.362;9.206;2023-05-29T10:53:14;26.90;50.20
7970;DHT22;4030;52.362;9.206;2023-05-29T10:55:42;27.00;50.20
7970;DHT22;4030;52.362;9.206;2023-05-29T10:58:17;27.00;50.20
7970;DHT22;4030;52.362;9.206;2023-05-29T11:00:45;27.10;50.20
7970;DHT22;4030;52.362;9.206;2023-05-29T11:03:22;27.20;50.10
7970;DHT22;4030;52.362;9.206;2023-05-29T11:06:02;27.30;50.00
7970;DHT22;4030;52.362;9.206;2023-05-29T11:08:43;27.40;49.80
7970;DHT22;4030;52.362;9.206;2023-05-29T11:11:14;27.40;49.60
7970;DHT22;4030;52.362;9.206;2023-05-29T11:13:41;27.50;49.50
7970;DHT22;4030;52.362;9.206;2023-05-29T11:19:04;27.60;49.30
7970;DHT22;4030;52.362;9.206;2023-05-29T11:24:23;27.80;48.90
7970;DHT22;4030;52.362;9.206;2023-05-29T11:26:52;27.90;48.80
7970;DHT22;4030;52.362;9.206;2023-05-29T11:29:26;28.00;48.80
7970;DHT22;4030;52.362;9.206;2023-05-29T11:32:01;28.10;48.60
7970;DHT22;4030;52.362;9.206;2023-05-29T11:34:29;28.10;48.40
7970;DHT22;4030;52.362;9.206;2023-05-29T11:36:58;28.10;48.20
7970;DHT22;4030;52.362;9.206;2023-05-29T11:39:24;28.10;48.20
7970;DHT22;4030;52.362;9.206;2023-05-29T11:41:51;28.20;48.20
7970;DHT22;4030;52.362;9.206;2023-05-29T11:44:18;28.20;48.00
7970;DHT22;4030;52.362;9.206;2023-05-29T11:46:43;28.30;48.00
7970;DHT22;4030;52.362;9.206;2023-05-29T11:49:09;28.30;47.90
7970;DHT22;4030;52.362;9.206;2023-05-29T11:51:35;28.40;48.00
7970;DHT22;4030;52.362;9.206;2023-05-29T11:54:01;28.40;48.00
7970;DHT22;4030;52.362;9.206;2023-05-29T11:56:28;28.50;48.00
7970;DHT22;4030;52.362;9.206;2023-05-29T11:58:55;28.50;47.90
7970;DHT22;4030;52.362;9.206;2023-05-29T12:01:25;28.60;47.70
7970;DHT22;4030;52.362;9.206;2023-05-29T12:03:52;28.60;47.60
7970;DHT22;4030;52.362;9.206;2023-05-29T12:06:31;28.60;47.50
7970;DHT22;4030;52.362;9.206;2023-05-29T12:08:58;28.70;47.50
7970;DHT22;4030;52.362;9.206;2023-05-29T12:11:24;28.80;47.60
7970;DHT22;4030;52.362;9.206;2023-05-29T12:14:00;28.80;47.40
7970;DHT22;4030;52.362;9.206;2023-05-29T12:16:32;29.00;47.40
7970;DHT22;4030;52.362;9.206;2023-05-29T12:18:59;29.00;47.30
7970;DHT22;4030;52.362;9.206;2023-05-29T12:21:27;29.10;47.30
7970;DHT22;4030;52.362;9.206;2023-05-29T12:23:53;28.30;47.00
7970;DHT22;4030;52.362;9.206;2023-05-29T12:26:23;29.20;47.60
7970;DHT22;4030;52.362;9.206;2023-05-29T12:28:50;29.30;47.50
7970;DHT22;4030;52.362;9.206;2023-05-29T12:31:27;29.30;47.30
7970;DHT22;4030;52.362;9.206;2023-05-29T12:34:08;29.40;46.90
7970;DHT22;4030;52.362;9.206;2023-05-29T12:36:34;29.30;46.60
7970;DHT22;4030;52.362;9.206;2023-05-29T12:39:00;29.30;46.50
7970;DHT22;4030;52.362;9.206;2023-05-29T12:41:34;29.30;46.30
7970;DHT22;4030;52.362;9.206;2023-05-29T12:44:03;29.30;46.00
7970;DHT22;4030;52.362;9.206;2023-05-29T12:46:38;29.30;45.90
7970;DHT22;4030;52.362;9.206;2023-05-29T12:49:18;29.30;45.90
7970;DHT22;4030;52.362;9.206;2023-05-29T12:51:48;29.30;45.60
7970;DHT22;4030;52.362;9.206;2023-05-29T12:54:15;29.30;45.50
7970;DHT22;4030;52.362;9.206;2023-05-29T12:56:42;29.30;45.50
7970;DHT22;4030;52.362;9.206;2023-05-29T12:59:08;29.40;44.90
7970;DHT22;4030;52.362;9.206;2023-05-29T13:01:35;29.30;45.50
7970;DHT22;4030;52.362;9.206;2023-05-29T13:04:04;29.40;45.20
7970;DHT22;4030;52.362;9.206;2023-05-29T13:06:32;29.40;45.10
7970;DHT22;4030;52.362;9.206;2023-05-29T13:08:59;29.30;45.10
7970;DHT22;4030;52.362;9.206;2023-05-29T13:11:24;29.40;45.00
7970;DHT22;4030;52.362;9.206;2023-05-29T13:13:51;29.30;45.00
7970;DHT22;4030;52.362;9.206;2023-05-29T13:16:17;29.40;45.10
7970;DHT22;4030;52.362;9.206;2023-05-29T13:18:43;29.40;45.00
7970;DHT22;4030;52.362;9.206;2023-05-29T13:21:09;29.40;44.90
7970;DHT22;4030;52.362;9.206;2023-05-29T13:23:35;29.50;44.70
7970;DHT22;4030;52.362;9.206;2023-05-29T13:26:01;29.50;44.50
7970;DHT22;4030;52.362;9.206;2023-05-29T13:28:27;29.60;44.30
7970;DHT22;4030;52.362;9.206;2023-05-29T13:30:52;29.70;44.10
7970;DHT22;4030;52.362;9.206;2023-05-29T13:33:18;29.80;44.00
7970;DHT22;4030;52.362;9.206;2023-05-29T13:35:44;29.90;43.90
7970;DHT22;4030;52.362;9.206;2023-05-29T13:38:10;30.00;43.70
7970;DHT22;4030;52.362;9.206;2023-05-29T13:40:35;30.00;43.40
7970;DHT22;4030;52.362;9.206;2023-05-29T13:43:01;30.10;43.20
7970;DHT22;4030;52.362;9.206;2023-05-29T13:45:27;30.20;42.80
7970;DHT22;4030;52.362;9.206;2023-05-29T13:47:54;30.20;42.80
7970;DHT22;4030;52.362;9.206;2023-05-29T13:50:20;30.30;42.80
7970;DHT22;4030;52.362;9.206;2023-05-29T13:52:49;30.30;42.70
7970;DHT22;4030;52.362;9.206;2023-05-29T13:55:15;30.40;42.50
7970;DHT22;4030;52.362;9.206;2023-05-29T13:57:41;30.50;42.40
7970;DHT22;4030;52.362;9.206;2023-05-29T14:00:09;30.50;42.20
7970;DHT22;4030;52.362;9.206;2023-05-29T14:02:36;30.60;42.20
7970;DHT22;4030;52.362;9.206;2023-05-29T14:05:02;30.60;42.00
7970;DHT22;4030;52.362;9.206;2023-05-29T14:07:27;30.60;42.00
7970;DHT22;4030;52.362;9.206;2023-05-29T14:09:53;30.70;41.90
7970;DHT22;4030;52.362;9.206;2023-05-29T14:12:19;30.70;41.80
7970;DHT22;4030;52.362;9.206;2023-05-29T14:14:45;30.80;41.70
7970;DHT22;4030;52.362;9.206;2023-05-29T14:17:10;30.80;41.60
7970;DHT22;4030;52.362;9.206;2023-05-29T14:19:37;30.90;41.70
7970;DHT22;4030;52.362;9.206;2023-05-29T14:22:03;31.00;41.70
7970;DHT22;4030;52.362;9.206;2023-05-29T14:24:29;31.10;41.50
7970;DHT22;4030;52.362;9.206;2023-05-29T14:26:55;31.20;41.50
7970;DHT22;4030;52.362;9.206;2023-05-29T14:29:20;31.30;41.30
7970;DHT22;4030;52.362;9.206;2023-05-29T14:31:46;31.40;41.10
7970;DHT22;4030;52.362;9.206;2023-05-29T14:34:12;31.40;40.80
7970;DHT22;4030;52.362;9.206;2023-05-29T14:36:39;31.40;40.60
7970;DHT22;4030;52.362;9.206;2023-05-29T14:39:05;31.40;40.70
7970;DHT22;4030;52.362;9.206;2023-05-29T14:41:31;31.40;40.60
7970;DHT22;4030;52.362;9.206;2023-05-29T14:43:57;31.20;40.90
7970;DHT22;4030;52.362;9.206;2023-05-29T14:46:27;31.10;40.90
7970;DHT22;4030;52.362;9.206;2023-05-29T14:48:57;31.00;40.90
7970;DHT22;4030;52.362;9.206;2023-05-29T14:51:23;30.90;41.00
7970;DHT22;4030;52.362;9.206;2023-05-29T14:53:50;30.80;41.00
7970;DHT22;4030;52.362;9.206;2023-05-29T14:56:15;30.70;41.00
7970;DHT22;4030;52.362;9.206;2023-05-29T14:58:43;30.60;41.80
7970;DHT22;4030;52.362;9.206;2023-05-29T15:01:09;30.60;41.10
7970;DHT22;4030;52.362;9.206;2023-05-29T15:03:35;30.50;41.00
7970;DHT22;4030;52.362;9.206;2023-05-29T15:06:04;30.40;41.00
7970;DHT22;4030;52.362;9.206;2023-05-29T15:08:31;30.30;41.20
7970;DHT22;4030;52.362;9.206;2023-05-29T15:11:00;30.20;41.30
7970;DHT22;4030;52.362;9.206;2023-05-29T15:13:28;30.10;41.60
7970;DHT22;4030;52.362;9.206;2023-05-29T15:15:55;30.00;41.60
7970;DHT22;4030;52.362;9.206;2023-05-29T15:18:24;30.00;41.70
7970;DHT22;4030;52.362;9.206;2023-05-29T15:20:53;29.90;41.80
7970;DHT22;4030;52.362;9.206;2023-05-29T15:23:19;29.80;41.80
7970;DHT22;4030;52.362;9.206;2023-05-29T15:25:51;29.70;41.90
7970;DHT22;4030;52.362;9.206;2023-05-29T15:28:17;29.60;42.00
7970;DHT22;4030;52.362;9.206;2023-05-29T15:30:43;29.40;41.80
7970;DHT22;4030;52.362;9.206;2023-05-29T15:33:09;29.30;41.90
7970;DHT22;4030;52.362;9.206;2023-05-29T15:35:39;27.60;41.20
7970;DHT22;4030;52.362;9.206;2023-05-29T15:38:06;29.10;42.50
7970;DHT22;4030;52.362;9.206;2023-05-29T15:40:32;29.00;42.60
7970;DHT22;4030;52.362;9.206;2023-05-29T15:42:57;28.90;42.50
7970;DHT22;4030;52.362;9.206;2023-05-29T15:45:23;28.80;42.50
7970;DHT22;4030;52.362;9.206;2023-05-29T15:47:49;28.70;42.10
7970;DHT22;4030;52.362;9.206;2023-05-29T15:50:16;28.70;42.10
7970;DHT22;4030;52.362;9.206;2023-05-29T15:52:42;28.60;42.10
7970;DHT22;4030;52.362;9.206;2023-05-29T15:55:07;28.50;42.30
7970;DHT22;4030;52.362;9.206;2023-05-29T15:57:33;28.50;42.40
7970;DHT22;4030;52.362;9.206;2023-05-29T15:59:59;28.40;42.40
7970;DHT22;4030;52.362;9.206;2023-05-29T16:02:25;28.30;42.40
7970;DHT22;4030;52.362;9.206;2023-05-29T16:04:50;28.20;42.40
7970;DHT22;4030;52.362;9.206;2023-05-29T16:07:16;28.20;42.50
7970;DHT22;4030;52.362;9.206;2023-05-29T16:09:42;28.10;42.60
7970;DHT22;4030;52.362;9.206;2023-05-29T16:12:09;28.00;42.70
7970;DHT22;4030;52.362;9.206;2023-05-29T16:14:36;28.00;42.90
7970;DHT22;4030;52.362;9.206;2023-05-29T16:17:02;27.80;43.10
7970;DHT22;4030;52.362;9.206;2023-05-29T16:19:28;27.80;43.10
7970;DHT22;4030;52.362;9.206;2023-05-29T16:21:53;27.70;43.10
7970;DHT22;4030;52.362;9.206;2023-05-29T16:24:19;27.70;43.20
7970;DHT22;4030;52.362;9.206;2023-05-29T16:26:45;27.50;43.30
7970;DHT22;4030;52.362;9.206;2023-05-29T16:29:10;27.40;43.30
7970;DHT22;4030;52.362;9.206;2023-05-29T16:31:36;27.40;43.30
7970;DHT22;4030;52.362;9.206;2023-05-29T16:34:02;27.30;43.80
7970;DHT22;4030;52.362;9.206;2023-05-29T16:36:29;27.20;44.00
7970;DHT22;4030;52.362;9.206;2023-05-29T16:38:56;27.10;44.20
7970;DHT22;4030;52.362;9.206;2023-05-29T16:41:21;27.10;45.10
7970;DHT22;4030;52.362;9.206;2023-05-29T16:43:47;27.00;44.50
7970;DHT22;4030;52.362;9.206;2023-05-29T16:46:13;26.90;44.90
7970;DHT22;4030;52.362;9.206;2023-05-29T16:48:38;26.90;45.10
7970;DHT22;4030;52.362;9.206;2023-05-29T16:51:07;26.80;45.10
7970;DHT22;4030;52.362;9.206;2023-05-29T16:53:33;26.70;45.20
7970;DHT22;4030;52.362;9.206;2023-05-29T16:56:01;26.70;45.20
7970;DHT22;4030;52.362;9.206;2023-05-29T16:58:27;26.60;45.20
7970;DHT22;4030;52.362;9.206;2023-05-29T17:00:52;26.60;45.60
7970;DHT22;4030;52.362;9.206;2023-05-29T17:03:18;26.50;45.70
7970;DHT22;4030;52.362;9.206;2023-05-29T17:05:44;26.40;45.90
7970;DHT22;4030;52.362;9.206;2023-05-29T17:08:11;26.40;46.10
7970;DHT22;4030;52.362;9.206;2023-05-29T17:10:36;26.30;46.10
7970;DHT22;4030;52.362;9.206;2023-05-29T17:13:02;26.20;46.20
7970;DHT22;4030;52.362;9.206;2023-05-29T17:15:28;26.20;46.40